Time;durP1;ratioP1;P1;durP2;ratioP2;P2;SDS_P1;SDS_P2;PMS_P1;PMS_P2;Temp;Humidity;BMP_temperature;BMP_pressure;BME280_temperature;BME280_humidity;BME280_pressure;Samples;Min_cycle;Max_cycle;Signal;HPM_P1;HPM_P2
2022/01/07 00:02:00;;;;;;;17.70;10.50;;;;;;;0.71;83.35;97460.86;109912;1251;71497;-69
2022/01/07 00:04:32;;;;;;;;;;;;;;;0.70;83.20;97463.81;110211;1247;68592;-70
2022/01/07 00:07:02;;;;;;;18.30;10.90;;;;;;;0.71;83.15;97467.73;110204;1247;69477;-70
2022/01/07 00:09:31;;;;;;;;;;;;;;;0.67;83.04;97468.73;110254;1247;59736;-69
2022/01/07 00:12:00;;;;;;;20.00;11.20;;;;;;;0.64;82.87;97469.66;110205;1247;59681;-68
2022/01/07 00:14:29;;;;;;;22.30;13.40;;;;;;;0.63;83.29;97475.52;110182;1248;71553;-69
2022/01/07 00:16:59;;;;;;;15.60;9.70;;;;;;;0.61;83.91;97479.52;110225;1247;67753;-69
2022/01/07 00:19:27;;;;;;;15.30;9.00;;;;;;;0.62;83.44;97482.42;110096;1248;69582;-70
2022/01/07 00:21:56;;;;;;;14.70;9.50;;;;;;;0.62;83.72;97489.80;110188;1248;59831;-71
2022/01/07 00:24:25;;;;;;;11.40;7.20;;;;;;;0.65;83.64;97493.30;110012;1251;59690;-69
2022/01/07 00:26:54;;;;;;;13.50;9.70;;;;;;;0.67;83.46;97493.40;110171;1248;71567;-71
2022/01/07 00:29:24;;;;;;;17.00;11.00;;;;;;;0.68;83.38;97498.32;110165;1248;68086;-68
2022/01/07 00:31:53;;;;;;;11.50;8.70;;;;;;;0.70;83.18;97498.79;110221;1247;68745;-71
2022/01/07 00:34:22;;;;;;;18.70;11.80;;;;;;;0.73;83.11;97496.64;110198;1248;59770;-69
2022/01/07 00:36:51;;;;;;;12.50;8.20;;;;;;;0.73;83.06;97499.71;110132;1250;59743;-71
2022/01/07 00:39:20;;;;;;;13.60;9.30;;;;;;;0.75;83.06;97499.83;110207;1247;72230;-69
2022/01/07 00:41:50;;;;;;;11.50;7.70;;;;;;;0.78;83.15;97501.80;110207;1247;68640;-71
2022/01/07 00:44:19;;;;;;;8.70;7.70;;;;;;;0.80;83.07;97503.45;110209;1247;69422;-69
2022/01/07 00:46:48;;;;;;;9.90;8.10;;;;;;;0.83;83.03;97504.90;110168;1248;59764;-69
2022/01/07 00:49:21;;;;;;;10.00;7.50;;;;;;;0.84;83.00;97510.20;110217;1247;59711;-69
2022/01/07 00:51:51;;;;;;;11.80;7.90;;;;;;;0.84;82.90;97506.58;110215;1247;72139;-68
2022/01/07 00:54:20;;;;;;;10.50;7.00;;;;;;;0.85;82.93;97509.98;110196;1247;67663;-70
2022/01/07 00:56:50;;;;;;;9.30;5.10;;;;;;;0.88;82.94;97509.89;110235;1247;68712;-70
2022/01/07 00:59:19;;;;;;;12.00;8.30;;;;;;;0.87;82.87;97508.35;110207;1247;59678;-70
2022/01/07 01:01:49;;;;;;;9.00;6.80;;;;;;;0.86;82.90;97508.21;110265;1247;59678;-70
2022/01/07 01:04:38;;;;;;;12.90;8.30;;;;;;;0.87;82.83;97512.49;110247;1248;70507;-70
2022/01/07 01:07:07;;;;;;;21.00;13.70;;;;;;;0.85;83.09;97509.27;110018;1248;67947;-71
2022/01/07 01:09:37;;;;;;;30.70;19.50;;;;;;;0.83;83.69;97508.67;110189;1248;68726;-69
2022/01/07 01:12:08;;;;;;;16.40;12.80;;;;;;;0.77;83.96;97506.12;110230;1248;59688;-69
2022/01/07 01:14:38;;;;;;;24.60;15.80;;;;;;;0.75;83.69;97509.10;110197;1247;59688;-71
2022/01/07 01:17:09;;;;;;;26.50;18.10;;;;;;;0.73;83.80;97514.46;110192;1247;71582;-68
2022/01/07 01:19:39;;;;;;;23.70;15.50;;;;;;;0.72;83.98;97522.58;110247;1247;68146;-70
2022/01/07 01:22:09;;;;;;;22.30;16.00;;;;;;;0.71;84.34;97521.58;110227;1247;69481;-70
2022/01/07 01:24:38;;;;;;;24.60;14.80;;;;;;;0.69;84.30;97524.04;110212;1247;59733;-70
2022/01/07 01:27:07;;;;;;;19.70;13.60;;;;;;;0.69;84.18;97526.79;110203;1247;59754;-67
2022/01/07 01:29:37;;;;;;;20.60;13.90;;;;;;;0.69;84.17;97524.73;110269;1248;70836;-68
2022/01/07 01:32:08;;;;;;;15.90;10.90;;;;;;;0.69;84.06;97522.84;110268;1247;68548;-69
2022/01/07 01:34:37;;;;;;;16.40;13.10;;;;;;;0.69;83.81;97524.39;110190;1247;69238;-69
2022/01/07 01:37:07;;;;;;;14.50;10.90;;;;;;;0.67;83.82;97525.98;110162;1247;59819;-69
2022/01/07 01:39:36;;;;;;;14.80;12.00;;;;;;;0.65;83.73;97524.52;110195;1247;59651;-69
2022/01/07 01:42:06;;;;;;;15.20;11.40;;;;;;;0.61;83.69;97526.01;110180;1247;71669;-70
2022/01/07 01:44:36;;;;;;;15.30;10.10;;;;;;;0.57;83.95;97532.65;110196;1247;68473;-70
2022/01/07 01:47:05;;;;;;;12.20;8.50;;;;;;;0.50;83.94;97533.55;110175;1250;69430;-69
2022/01/07 01:49:35;;;;;;;15.40;10.70;;;;;;;0.44;83.69;97531.52;110171;1247;59798;-69
2022/01/07 01:52:05;;;;;;;13.70;8.60;;;;;;;0.37;83.79;97528.97;110156;1247;59615;-70
2022/01/07 01:54:35;;;;;;;14.70;9.30;;;;;;;0.31;83.71;97530.70;110142;1248;70560;-69
2022/01/07 01:57:05;;;;;;;19.10;11.60;;;;;;;0.25;83.82;97533.80;110157;1250;67825;-69
2022/01/07 01:59:37;;;;;;;16.20;10.50;;;;;;;0.18;84.25;97537.25;109916;1250;68689;-70
2022/01/07 02:02:10;;;;;;;11.60;8.30;;;;;;;0.12;84.20;97540.88;109738;1250;59690;-70
2022/01/07 02:04:41;;;;;;;10.70;7.70;;;;;;;0.08;84.09;97546.13;110007;1250;59803;-74
2022/01/07 02:07:13;;;;;;;;;;;;;;;0.04;83.98;97551.88;110035;1250;70764;-71
2022/01/07 02:09:43;;;;;;;9.50;7.00;;;;;;;0.00;83.96;97556.79;109998;1250;68629;-71
2022/01/07 02:12:15;;;;;;;7.50;6.10;;;;;;;-0.04;83.95;97558.12;109993;1248;69637;-69
2022/01/07 02:14:53;;;;;;;8.90;6.40;;;;;;;-0.08;83.83;97559.77;109979;1250;59735;-67
2022/01/07 02:17:25;;;;;;;9.50;6.70;;;;;;;-0.11;83.80;97565.84;109925;1250;59683;-72
2022/01/07 02:19:56;;;;;;;11.60;7.40;;;;;;;-0.15;83.73;97570.42;109908;1250;70800;-73
2022/01/07 02:22:27;;;;;;;11.40;7.80;;;;;;;-0.20;83.70;97574.14;110108;1248;68405;-68
2022/01/07 02:24:57;;;;;;;;;;;;;;;-0.24;83.69;97573.58;110105;1248;69500;-71
2022/01/07 02:27:28;;;;;;;;;;;;;;;-0.31;83.78;97570.48;110058;1247;59665;-72
2022/01/07 02:29:59;;;;;;;9.00;6.50;;;;;;;-0.36;83.99;97570.46;110135;1248;60113;-72
2022/01/07 02:32:29;;;;;;;11.00;7.50;;;;;;;-0.42;83.95;97576.45;110115;1248;70683;-71
2022/01/07 02:35:00;;;;;;;8.70;5.30;;;;;;;-0.47;83.99;97578.13;110082;1250;67834;-67
2022/01/07 02:37:30;;;;;;;7.40;4.90;;;;;;;-0.52;83.86;97582.52;109938;1249;68457;-71
2022/01/07 02:40:02;;;;;;;12.90;8.30;;;;;;;-0.57;83.81;97586.23;109992;1250;59727;-70
2022/01/07 02:42:32;;;;;;;13.60;9.00;;;;;;;-0.59;83.76;97593.15;110190;1247;59625;-72
2022/01/07 02:45:08;;;;;;;17.00;9.80;;;;;;;-0.60;84.27;97594.20;109944;1250;71349;-69
2022/01/07 02:48:03;;;;;;;16.30;9.70;;;;;;;-0.58;84.81;97596.35;110135;1248;68065;-73
2022/01/07 02:50:36;;;;;;;14.20;8.70;;;;;;;-0.52;84.93;97599.14;109780;1250;69647;-72
2022/01/07 02:53:09;;;;;;;14.00;8.10;;;;;;;-0.46;85.00;97598.13;109893;1250;59773;-70
2022/01/07 02:55:41;;;;;;;17.40;9.40;;;;;;;-0.40;85.14;97597.63;110000;1250;59744;-72
2022/01/07 02:58:12;;;;;;;15.90;9.90;;;;;;;-0.34;85.44;97597.98;110067;1250;70828;-72
2022/01/07 03:00:41;;;;;;;14.80;9.70;;;;;;;-0.27;85.15;97598.81;110089;1247;67918;-66
2022/01/07 03:03:11;;;;;;;14.40;9.70;;;;;;;-0.22;85.01;97596.30;110089;1250;69400;-72
2022/01/07 03:05:41;;;;;;;10.90;7.80;;;;;;;-0.18;84.92;97605.96;110161;1248;59779;-70
2022/01/07 03:08:12;;;;;;;18.90;10.90;;;;;;;-0.16;84.79;97604.54;109986;1250;59641;-68
2022/01/07 03:10:43;;;;;;;21.70;13.10;;;;;;;-0.14;84.91;97600.20;109892;1249;71747;-70
2022/01/07 03:13:17;;;;;;;18.30;11.60;;;;;;;-0.12;84.79;97599.79;110072;1249;68312;-72
2022/01/07 03:15:47;;;;;;;19.30;12.60;;;;;;;-0.14;85.20;97598.48;110125;1247;69349;-70
2022/01/07 03:18:17;;;;;;;19.40;12.40;;;;;;;-0.14;85.54;97597.79;110040;1247;59735;-72
2022/01/07 03:20:46;;;;;;;15.80;9.90;;;;;;;-0.16;85.41;97599.38;110116;1248;59738;-72
2022/01/07 03:23:16;;;;;;;12.90;9.20;;;;;;;-0.20;85.10;97594.88;109975;1247;71492;-71
2022/01/07 03:25:46;;;;;;;13.40;9.60;;;;;;;-0.25;84.87;97600.14;109917;1250;69886;-68
2022/01/07 03:28:17;;;;;;;13.20;9.40;;;;;;;-0.29;84.94;97605.20;109894;1250;69312;-72
2022/01/07 03:30:53;;;;;;;10.90;7.90;;;;;;;-0.33;84.94;97606.17;110119;1247;59690;-69
2022/01/07 03:33:24;;;;;;;9.80;6.60;;;;;;;-0.35;84.83;97613.42;110058;1248;59703;-70
2022/01/07 03:35:59;;;;;;;9.60;5.20;;;;;;;-0.37;84.78;97615.53;110214;1250;71760;-69
2022/01/07 03:38:29;;;;;;;13.60;7.80;;;;;;;-0.37;84.73;97616.73;110142;1248;67665;-70
2022/01/07 03:41:00;;;;;;;14.20;9.30;;;;;;;-0.35;84.86;97621.99;110147;1247;68763;-69
2022/01/07 03:43:31;;;;;;;11.20;7.20;;;;;;;-0.34;84.83;97627.08;109893;1250;59691;-71
2022/01/07 03:46:01;;;;;;;11.30;8.00;;;;;;;-0.30;84.99;97628.88;110066;1248;59702;-70
2022/01/07 03:48:30;;;;;;;15.70;9.30;;;;;;;-0.26;85.08;97634.77;110104;1248;70848;-69
2022/01/07 03:51:00;;;;;;;14.80;10.20;;;;;;;-0.19;85.22;97639.04;109925;1250;68575;-69
2022/01/07 03:53:32;;;;;;;13.90;9.20;;;;;;;-0.13;85.23;97641.11;109934;1250;69286;-73
2022/01/07 03:56:02;;;;;;;16.60;9.90;;;;;;;-0.08;85.17;97645.43;110179;1247;59762;-70
2022/01/07 03:58:31;;;;;;;12.80;7.60;;;;;;;-0.05;84.88;97649.27;110080;1247;59745;-71
2022/01/07 04:01:00;;;;;;;13.00;7.70;;;;;;;-0.03;84.72;97647.36;110086;1248;71522;-70
2022/01/07 04:03:30;;;;;;;14.90;9.50;;;;;;;-0.02;84.58;97652.61;110014;1251;67770;-69
2022/01/07 04:05:59;;;;;;;13.20;9.30;;;;;;;0.02;84.38;97657.67;110130;1247;69368;-70
2022/01/07 04:08:29;;;;;;;10.40;8.20;;;;;;;0.03;84.04;97663.64;109984;1250;59753;-67
2022/01/07 04:10:59;;;;;;;14.20;9.90;;;;;;;0.02;83.71;97668.49;110191;1247;59703;-69
2022/01/07 04:13:28;;;;;;;8.80;7.10;;;;;;;-0.04;82.41;97665.02;110192;1247;70622;-69
2022/01/07 04:15:58;;;;;;;8.20;6.40;;;;;;;-0.06;82.10;97667.98;110108;1248;68713;-71
2022/01/07 04:18:27;;;;;;;7.30;5.50;;;;;;;-0.08;81.22;97673.87;110177;1247;69427;-68
2022/01/07 04:20:56;;;;;;;7.20;6.00;;;;;;;-0.11;80.85;97676.00;110194;1247;59659;-70
2022/01/07 04:23:25;;;;;;;6.80;4.90;;;;;;;-0.16;80.29;97675.29;110221;1247;59662;-70
2022/01/07 04:25:55;;;;;;;8.50;6.00;;;;;;;-0.19;80.82;97682.73;110198;1247;71599;-69
2022/01/07 04:28:25;;;;;;;8.10;6.20;;;;;;;-0.26;79.80;97689.58;110193;1248;67829;-70
2022/01/07 04:30:54;;;;;;;7.40;5.60;;;;;;;-0.32;79.47;97690.23;110041;1247;68649;-70
2022/01/07 04:33:29;;;;;;;7.60;5.30;;;;;;;-0.35;79.73;97690.15;110223;1247;59699;-70
2022/01/07 04:35:59;;;;;;;6.50;5.30;;;;;;;-0.39;79.64;97687.67;110234;1247;59668;-70
2022/01/07 04:38:28;;;;;;;7.10;4.40;;;;;;;-0.39;80.05;97690.77;110018;1248;71600;-73
2022/01/07 04:40:57;;;;;;;6.10;4.90;;;;;;;-0.42;80.09;97698.38;110274;1247;68859;-70
2022/01/07 04:43:26;;;;;;;6.60;4.60;;;;;;;-0.46;79.84;97702.58;110232;1247;69564;-70
2022/01/07 04:45:56;;;;;;;7.30;4.60;;;;;;;-0.47;79.57;97703.46;110262;1247;59706;-69
2022/01/07 04:48:26;;;;;;;7.10;5.10;;;;;;;-0.53;78.87;97703.08;110176;1248;59604;-69
2022/01/07 04:50:55;;;;;;;5.60;4.50;;;;;;;-0.56;78.68;97702.47;110235;1247;71534;-70
2022/01/07 04:53:26;;;;;;;6.60;4.20;;;;;;;-0.57;78.59;97709.67;110191;1247;68594;-67
2022/01/07 04:55:58;;;;;;;4.90;3.80;;;;;;;-0.60;78.29;97713.52;110235;1247;68574;-71
2022/01/07 04:58:27;;;;;;;6.00;4.30;;;;;;;-0.64;77.91;97711.05;110213;1247;59671;-71
2022/01/07 05:00:56;;;;;;;6.30;4.20;;;;;;;-0.68;77.57;97709.09;110254;1247;59629;-69
2022/01/07 05:03:25;;;;;;;7.50;5.20;;;;;;;-0.75;77.60;97710.95;110253;1247;70694;-69
2022/01/07 05:06:08;;;;;;;6.10;4.40;;;;;;;-0.87;77.35;97712.08;110204;1247;68337;-70
2022/01/07 05:08:38;;;;;;;8.10;4.90;;;;;;;-0.98;76.85;97713.86;110241;1245;68557;-69
2022/01/07 05:11:07;;;;;;;7.20;4.90;;;;;;;-1.01;77.24;97717.88;109974;1250;59741;-67
2022/01/07 05:13:36;;;;;;;6.30;5.20;;;;;;;-1.06;77.28;97723.27;110244;1247;59735;-69
2022/01/07 05:16:06;;;;;;;7.90;4.90;;;;;;;-1.11;76.80;97729.04;110036;1249;70755;-70
2022/01/07 05:18:37;;;;;;;6.50;4.50;;;;;;;-1.14;77.06;97734.40;110360;1248;67911;-68
2022/01/07 05:21:10;;;;;;;5.70;4.30;;;;;;;-1.17;77.10;97746.77;110223;1247;70530;-67
2022/01/07 05:23:43;;;;;;;4.90;3.60;;;;;;;-1.21;77.30;97750.62;110185;1248;59884;-69
2022/01/07 05:26:12;;;;;;;6.60;4.50;;;;;;;-1.24;77.83;97750.86;109983;1250;59673;-68
2022/01/07 05:28:41;;;;;;;5.50;3.80;;;;;;;-1.25;77.94;97751.05;110188;1247;70793;-69
2022/01/07 05:31:11;;;;;;;6.50;4.50;;;;;;;-1.27;77.64;97748.20;110152;1249;68618;-71
2022/01/07 05:33:40;;;;;;;5.80;4.20;;;;;;;-1.29;77.39;97749.59;109889;1250;69465;-69
2022/01/07 05:36:09;;;;;;;6.70;4.00;;;;;;;-1.30;77.41;97747.20;110223;1247;59730;-69
2022/01/07 05:38:39;;;;;;;7.60;4.90;;;;;;;-1.32;77.53;97749.32;110214;1249;59789;-69
2022/01/07 05:41:09;;;;;;;6.00;3.80;;;;;;;-1.33;77.55;97749.16;110159;1249;70971;-69
2022/01/07 05:43:38;;;;;;;7.10;4.70;;;;;;;-1.34;77.05;97753.28;110238;1247;69139;-69
2022/01/07 05:46:13;;;;;;;7.70;4.30;;;;;;;-1.38;76.95;97755.06;110207;1248;69861;-73
2022/01/07 05:48:44;;;;;;;6.10;4.00;;;;;;;-1.42;77.02;97756.17;110081;1250;59715;-70
2022/01/07 05:51:14;;;;;;;5.20;4.10;;;;;;;-1.44;76.96;97756.56;110218;1248;59669;-69
2022/01/07 05:53:43;;;;;;;5.70;4.70;;;;;;;-1.47;77.07;97758.66;110145;1250;71724;-70
2022/01/07 05:56:12;;;;;;;5.00;3.30;;;;;;;-1.51;77.20;97762.00;110063;1249;68700;-67
2022/01/07 05:58:41;;;;;;;6.70;4.40;;;;;;;-1.54;77.25;97770.43;110256;1247;69399;-69
2022/01/07 06:01:12;;;;;;;9.60;5.40;;;;;;;-1.59;77.39;97779.57;110241;1247;59665;-70
2022/01/07 06:03:41;;;;;;;7.40;5.00;;;;;;;-1.63;77.21;97787.67;110194;1248;59667;-70
2022/01/07 06:06:10;;;;;;;7.70;3.90;;;;;;;-1.68;76.73;97788.62;110225;1247;71557;-70
2022/01/07 06:08:40;;;;;;;7.00;3.70;;;;;;;-1.70;76.95;97794.48;110233;1247;67708;-69
2022/01/07 06:11:09;;;;;;;6.30;5.10;;;;;;;-1.73;77.33;97799.48;110211;1247;68664;-69
2022/01/07 06:13:38;;;;;;;9.40;6.60;;;;;;;-1.78;76.83;97802.81;110184;1250;59685;-69
2022/01/07 06:16:07;;;;;;;7.20;4.40;;;;;;;-1.82;75.88;97803.73;110170;1247;59673;-70
2022/01/07 06:18:50;;;;;;;7.90;5.80;;;;;;;-1.82;76.48;97800.33;110159;1247;70947;-69
2022/01/07 06:21:20;;;;;;;5.50;4.40;;;;;;;-1.85;76.72;97801.22;110105;1250;68272;-68
2022/01/07 06:23:49;;;;;;;7.10;4.90;;;;;;;-1.83;77.24;97812.82;110204;1250;69368;-70
2022/01/07 06:26:18;;;;;;;7.20;5.20;;;;;;;-1.81;77.25;97831.23;109943;1249;59771;-69
2022/01/07 06:28:47;;;;;;;9.50;6.20;;;;;;;-1.83;76.98;97833.99;110156;1248;59672;-70
2022/01/07 06:31:16;;;;;;;5.90;4.40;;;;;;;-1.85;77.02;97836.93;110176;1249;71387;-70
2022/01/07 06:33:45;;;;;;;9.40;5.70;;;;;;;-1.83;77.02;97834.52;110241;1247;67507;-69
2022/01/07 06:36:14;;;;;;;5.90;4.10;;;;;;;-1.79;76.70;97836.16;109903;1250;70046;-69
2022/01/07 06:38:43;;;;;;;5.90;4.90;;;;;;;-1.74;77.14;97841.70;110159;1248;60036;-70
2022/01/07 06:41:12;;;;;;;6.30;3.20;;;;;;;-1.68;77.00;97847.42;110050;1249;59696;-70
2022/01/07 06:43:43;;;;;;;5.50;4.30;;;;;;;-1.61;77.03;97848.15;110187;1248;72127;-71
2022/01/07 06:46:13;;;;;;;9.20;5.60;;;;;;;-1.53;76.49;97854.17;110192;1248;67827;-69
2022/01/07 06:48:48;;;;;;;7.20;4.50;;;;;;;-1.46;75.90;97856.09;109995;1249;70093;-68
2022/01/07 06:51:17;;;;;;;8.10;5.80;;;;;;;-1.41;75.40;97856.69;110179;1247;59643;-68
2022/01/07 06:53:46;;;;;;;6.00;4.90;;;;;;;-1.37;75.36;97855.93;110106;1247;59703;-69
2022/01/07 06:56:15;;;;;;;7.80;5.70;;;;;;;-1.32;75.13;97862.17;110178;1247;71944;-69
2022/01/07 06:58:44;;;;;;;6.70;5.00;;;;;;;-1.27;75.43;97868.91;110155;1247;68829;-70
2022/01/07 07:01:13;;;;;;;5.70;4.60;;;;;;;-1.18;75.46;97871.15;109967;1248;69837;-71
2022/01/07 07:03:43;;;;;;;5.20;3.90;;;;;;;-1.10;75.66;97869.79;110024;1250;59606;-67
2022/01/07 07:06:13;;;;;;;6.80;4.30;;;;;;;-1.00;75.93;97870.64;110235;1247;59713;-70
2022/01/07 07:08:43;;;;;;;6.50;4.00;;;;;;;-0.91;75.18;97873.88;110194;1247;70552;-70
2022/01/07 07:11:12;;;;;;;5.40;4.90;;;;;;;-0.82;74.89;97878.66;110008;1248;68641;-70
2022/01/07 07:13:41;;;;;;;7.60;4.70;;;;;;;-0.74;74.35;97886.05;110132;1247;69687;-69
2022/01/07 07:16:09;;;;;;;5.80;4.50;;;;;;;-0.68;74.09;97882.83;110169;1247;59699;-70
2022/01/07 07:18:38;;;;;;;5.80;4.80;;;;;;;-0.68;71.88;97879.08;110024;1250;59723;-69
2022/01/07 07:21:07;;;;;;;6.50;4.60;;;;;;;-0.76;71.76;97878.89;110085;1250;69856;-68
2022/01/07 07:23:36;;;;;;;5.50;4.70;;;;;;;-0.73;72.92;97879.86;110189;1247;69070;-68
2022/01/07 07:26:05;;;;;;;5.00;3.60;;;;;;;-0.68;73.69;97887.11;110100;1249;68794;-68
2022/01/07 07:28:36;;;;;;;5.80;3.90;;;;;;;-0.59;74.15;97881.11;110176;1247;59688;-69
2022/01/07 07:31:14;;;;;;;7.40;3.80;;;;;;;-0.45;73.88;97878.42;109990;1247;59701;-69
2022/01/07 07:39:01;;;;;;;4.40;3.50;;;;;;;0.30;73.36;97885.79;110009;1250;69393;-70
2022/01/07 07:41:32;;;;;;;6.30;4.10;;;;;;;0.67;71.37;97878.52;110206;1247;59677;-69
2022/01/07 07:44:01;;;;;;;9.10;5.30;;;;;;;0.81;70.92;97881.22;110145;1247;59777;-68
2022/01/07 07:46:32;;;;;;;7.00;4.80;;;;;;;0.84;69.59;97882.89;110171;1247;72120;-69
2022/01/07 07:49:03;;;;;;;7.10;5.40;;;;;;;0.98;67.91;97881.11;110110;1247;69202;-69
2022/01/07 07:51:32;;;;;;;7.70;5.20;;;;;;;1.03;66.84;97874.11;110153;1247;70008;-69
2022/01/07 07:54:03;;;;;;;6.00;4.30;;;;;;;1.12;69.23;97871.13;110079;1248;59708;-70
2022/01/07 07:56:31;;;;;;;;;;;;;;;1.25;69.89;97872.14;110169;1247;59681;-69
2022/01/07 07:59:00;;;;;;;6.80;4.70;;;;;;;1.45;69.10;97872.79;110126;1248;71433;-70
2022/01/07 08:01:29;;;;;;;7.60;4.60;;;;;;;2.29;66.24;97866.92;110127;1250;68667;-69
2022/01/07 08:03:59;;;;;;;6.90;4.90;;;;;;;3.44;67.84;97867.73;110118;1247;69405;-68
2022/01/07 08:06:28;;;;;;;8.10;5.90;;;;;;;4.67;57.62;97869.11;110154;1247;59719;-70
2022/01/07 08:08:57;;;;;;;8.80;5.20;;;;;;;5.55;54.23;97863.90;109963;1250;59735;-69
2022/01/07 08:11:31;;;;;;;5.80;5.00;;;;;;;6.28;54.03;97861.74;110215;1247;71469;-69
2022/01/07 08:16:48;;;;;;;5.30;3.90;;;;;;;7.70;52.81;97840.95;110147;1247;68411;-70
2022/01/07 08:19:17;;;;;;;6.90;5.20;;;;;;;8.32;52.70;97844.97;110128;1248;59119;-71
2022/01/07 08:21:45;;;;;;;6.90;4.70;;;;;;;8.81;50.85;97848.77;110170;1247;59730;-71
2022/01/07 08:24:14;;;;;;;6.30;4.60;;;;;;;9.22;49.41;97848.39;110161;1247;71771;-70
2022/01/07 08:26:48;;;;;;;7.20;5.50;;;;;;;9.55;46.59;97848.48;110042;1247;68992;-70
2022/01/07 08:29:18;;;;;;;6.70;4.70;;;;;;;9.70;43.30;97851.04;110051;1247;70120;-70
2022/01/07 08:37:03;;;;;;;6.10;5.20;;;;;;;10.05;42.73;97844.80;110175;1247;72253;-69
2022/01/07 08:39:32;;;;;;;8.80;5.60;;;;;;;10.21;43.73;97843.45;110013;1248;67906;-69
2022/01/07 08:42:01;;;;;;;9.70;6.00;;;;;;;10.32;41.93;97849.57;110170;1247;69737;-72
2022/01/07 08:44:29;;;;;;;8.20;5.60;;;;;;;10.36;41.53;97853.81;110245;1247;59672;-71
2022/01/07 08:46:58;;;;;;;7.70;5.50;;;;;;;10.65;41.64;97855.04;110069;1247;60074;-71
2022/01/07 08:49:27;;;;;;;9.40;7.30;;;;;;;11.06;41.00;97855.44;110014;1248;70803;-70
2022/01/07 08:51:59;;;;;;;9.30;6.70;;;;;;;10.80;37.43;97858.58;110106;1247;68486;-70
2022/01/07 08:54:27;;;;;;;10.20;7.20;;;;;;;10.74;39.45;97857.66;109975;1250;69382;-71
2022/01/07 08:56:56;;;;;;;8.70;6.50;;;;;;;10.86;38.47;97859.77;109949;1248;59770;-69
2022/01/07 08:59:25;;;;;;;7.40;5.90;;;;;;;10.88;37.78;97862.80;110131;1247;59854;-70
2022/01/07 09:01:54;;;;;;;6.90;5.90;;;;;;;11.20;39.20;97859.77;110027;1248;70720;-71
2022/01/07 09:04:23;;;;;;;7.40;5.70;;;;;;;11.79;37.06;97865.06;110148;1247;68393;-70
2022/01/07 09:06:53;;;;;;;6.50;5.60;;;;;;;12.08;36.34;97867.27;110136;1247;68579;-70
2022/01/07 09:09:21;;;;;;;6.40;5.30;;;;;;;12.07;37.23;97872.38;110131;1247;59700;-69
2022/01/07 09:11:50;;;;;;;6.20;4.30;;;;;;;12.53;39.58;97871.31;109961;1248;242893;-70
2022/01/07 09:14:19;;;;;;;6.00;4.50;;;;;;;13.51;37.13;97862.55;110135;1247;69988;-71
2022/01/07 09:16:48;;;;;;;4.60;4.10;;;;;;;14.43;37.64;97858.93;110109;1247;68589;-69
2022/01/07 09:19:17;;;;;;;6.30;4.20;;;;;;;15.31;37.40;97863.35;109953;1249;69459;-70
2022/01/07 09:21:45;;;;;;;5.00;3.70;;;;;;;15.99;31.39;97863.85;110003;1249;59775;-70
2022/01/07 09:24:14;;;;;;;5.20;3.70;;;;;;;16.35;33.53;97866.98;109979;1249;59721;-71
2022/01/07 09:26:43;;;;;;;5.50;4.50;;;;;;;16.91;31.68;97860.04;109895;1248;70853;-70
2022/01/07 09:29:12;;;;;;;7.10;5.10;;;;;;;17.57;32.79;97860.98;110285;1247;68374;-70
2022/01/07 09:31:41;;;;;;;6.30;4.90;;;;;;;18.11;31.23;97858.59;110161;1247;69234;-70
2022/01/07 09:34:09;;;;;;;6.10;4.60;;;;;;;18.51;28.57;97863.38;110181;1247;59710;-71
2022/01/07 09:36:56;;;;;;;5.20;3.60;;;;;;;18.95;31.20;97864.37;109809;1250;59753;-71
2022/01/07 09:39:25;;;;;;;5.00;3.70;;;;;;;19.21;25.50;97852.57;110210;1247;71719;-71
2022/01/07 09:41:53;;;;;;;7.40;6.10;;;;;;;19.27;29.95;97850.83;110310;1247;69173;-72
2022/01/07 09:44:22;;;;;;;6.20;4.70;;;;;;;19.42;25.75;97846.25;110203;1248;69248;-71
2022/01/07 09:46:51;;;;;;;6.60;5.70;;;;;;;19.11;25.56;97847.54;110156;1249;59766;-70
2022/01/07 09:49:20;;;;;;;5.70;4.90;;;;;;;18.48;26.33;97842.73;109990;1250;59619;-71
2022/01/07 09:51:49;;;;;;;5.60;4.20;;;;;;;18.40;27.16;97840.97;109871;1249;72253;-71
2022/01/07 09:54:19;;;;;;;5.30;4.60;;;;;;;18.77;27.55;97842.79;109892;1249;68481;-71
2022/01/07 09:56:48;;;;;;;6.10;4.80;;;;;;;19.04;25.84;97838.67;109916;1249;69466;-71
2022/01/07 09:59:18;;;;;;;5.40;4.70;;;;;;;18.96;26.04;97843.94;109862;1248;59685;-71
2022/01/07 10:02:07;;;;;;;6.90;5.10;;;;;;;18.79;27.58;97841.09;110201;1249;59749;-70
2022/01/07 10:04:41;;;;;;;5.40;4.30;;;;;;;18.33;26.38;97836.92;109956;1250;71992;-72
2022/01/07 10:07:20;;;;;;;7.60;6.10;;;;;;;17.83;27.71;97834.38;110196;1248;68794;-72
2022/01/07 10:10:08;;;;;;;7.00;6.30;;;;;;;17.15;25.70;97836.00;109933;1249;70167;-71
2022/01/07 10:12:53;;;;;;;5.60;4.60;;;;;;;16.49;28.08;97840.95;110178;1248;59684;-72
2022/01/07 10:15:24;;;;;;;6.60;5.40;;;;;;;16.50;29.75;97835.96;110164;1247;59815;-72
2022/01/07 10:18:00;;;;;;;7.40;6.10;;;;;;;16.59;29.94;97832.64;110218;1247;72213;-71
2022/01/07 10:20:43;;;;;;;8.30;6.20;;;;;;;16.21;27.57;97831.67;110144;1247;68547;-71
2022/01/07 10:23:24;;;;;;;6.80;4.70;;;;;;;14.94;29.14;97828.02;109845;1247;69412;-71
2022/01/07 10:25:57;;;;;;;6.10;4.60;;;;;;;14.00;32.25;97829.10;109979;1247;59746;-73
2022/01/07 10:28:34;;;;;;;5.60;5.00;;;;;;;13.54;33.15;97826.79;110228;1247;59664;-72
2022/01/07 10:31:02;;;;;;;6.40;5.10;;;;;;;13.21;33.59;97829.66;110118;1249;71505;-70
2022/01/07 10:33:37;;;;;;;7.40;5.80;;;;;;;12.81;33.32;97828.31;110267;1247;69240;-70
2022/01/07 10:36:12;;;;;;;4.90;4.10;;;;;;;12.24;33.79;97831.95;110160;1247;68565;-71
2022/01/07 10:38:50;;;;;;;6.10;4.60;;;;;;;11.93;35.17;97823.59;110211;1247;59659;-71
2022/01/07 10:41:20;;;;;;;5.60;4.10;;;;;;;11.51;35.55;97818.32;110200;1247;59703;-71
2022/01/07 10:43:53;;;;;;;4.50;3.60;;;;;;;11.17;37.06;97819.96;109912;1250;70603;-72
2022/01/07 10:46:27;;;;;;;6.10;4.80;;;;;;;10.83;37.78;97815.16;110232;1247;67857;-71
2022/01/07 10:48:59;;;;;;;8.60;6.60;;;;;;;10.32;37.13;97813.09;110073;1247;69362;-72
2022/01/07 10:51:41;;;;;;;7.60;6.20;;;;;;;9.67;37.18;97806.64;110208;1247;59678;-72
2022/01/07 10:54:17;;;;;;;8.10;6.50;;;;;;;10.19;36.48;97803.71;109956;1247;59754;-71
2022/01/07 10:56:51;;;;;;;8.10;6.90;;;;;;;10.42;36.24;97804.68;110215;1247;71507;-73
2022/01/07 10:59:21;;;;;;;6.70;5.10;;;;;;;11.16;35.78;97803.16;110210;1247;69121;-69
2022/01/07 11:01:58;;;;;;;10.20;7.10;;;;;;;12.11;33.19;97803.24;109894;1247;69862;-71
2022/01/07 11:04:31;;;;;;;6.40;5.60;;;;;;;13.05;32.08;97800.40;109830;1247;59685;-71
2022/01/07 11:07:03;;;;;;;6.40;4.80;;;;;;;14.36;33.01;97799.70;110187;1247;59624;-71
2022/01/07 11:09:32;;;;;;;6.30;5.60;;;;;;;15.85;29.96;97800.73;110123;1247;71948;-72
2022/01/07 11:12:02;;;;;;;6.70;5.30;;;;;;;17.10;28.57;97798.04;110175;1247;69026;-72
2022/01/07 11:14:38;;;;;;;7.20;5.30;;;;;;;18.02;28.09;97795.88;110212;1247;69968;-71
2022/01/07 11:17:10;;;;;;;8.40;6.70;;;;;;;18.70;26.05;97797.61;110212;1247;59678;-69
2022/01/07 11:19:43;;;;;;;6.70;5.40;;;;;;;19.08;25.24;97798.95;109926;1247;59735;-71
2022/01/07 11:22:14;;;;;;;7.50;5.70;;;;;;;19.46;25.28;97795.58;110203;1247;71553;-71
2022/01/07 11:24:53;;;;;;;6.90;4.80;;;;;;;19.42;23.85;97792.30;110222;1247;67985;-73
2022/01/07 11:27:26;;;;;;;6.60;5.40;;;;;;;19.84;24.84;97794.50;110231;1247;68196;-71
2022/01/07 11:30:07;;;;;;;6.10;5.10;;;;;;;20.12;23.90;97795.39;110186;1247;59701;-72
2022/01/07 11:32:45;;;;;;;5.50;5.00;;;;;;;20.52;23.71;97792.79;110243;1247;59678;-71
2022/01/07 11:35:16;;;;;;;6.20;5.00;;;;;;;20.89;23.28;97787.52;110202;1247;71046;-72
2022/01/07 11:37:48;;;;;;;6.00;4.90;;;;;;;20.53;23.18;97790.81;110238;1247;69010;-72
2022/01/07 11:40:32;;;;;;;6.20;5.30;;;;;;;19.47;23.73;97785.90;110235;1247;69269;-71
2022/01/07 11:43:31;;;;;;;6.20;5.40;;;;;;;19.45;23.29;97783.98;110211;1247;59694;-69
2022/01/07 11:46:21;;;;;;;5.10;4.00;;;;;;;19.95;23.89;97786.21;110200;1247;59747;-71
2022/01/07 11:48:50;;;;;;;;;;;;;;;20.55;23.47;97783.55;110187;1248;72169;-72
2022/01/07 11:51:19;;;;;;;6.10;5.40;;;;;;;20.67;22.13;97778.73;110232;1247;69012;-73
2022/01/07 11:53:49;;;;;;;5.80;5.20;;;;;;;20.72;20.92;97775.90;110191;1247;69227;-71
2022/01/07 11:56:23;;;;;;;5.40;4.50;;;;;;;20.67;20.49;97781.24;110210;1247;59687;-71
2022/01/07 11:58:56;;;;;;;5.80;4.60;;;;;;;20.71;20.82;97785.26;109926;1247;59747;-70